sensor_id;sensor_type;location;lat;lon;timestamp;P1;P2;P0
79689;PMS5003;69156;55.932;-3.238;2023-05-07T00:00:18;25;24;
79689;PMS5003;69156;55.932;-3.238;2023-05-07T00:02:44;23;22;
79689;PMS5003;69156;55.932;-3.238;2023-05-07T00:05:09;25;25;
79689;PMS5003;69156;55.932;-3.238;2023-05-07T00:07:35;24;23;
79689;PMS5003;69156;55.932;-3.238;2023-05-07T00:10:00;28;28;
79689;PMS5003;69156;55.932;-3.238;2023-05-07T00:12:26;25;25;
79689;PMS5003;69156;55.932;-3.238;2023-05-07T00:14:52;29;28;
79689;PMS5003;69156;55.932;-3.238;2023-05-07T00:17:18;24;23;
79689;PMS5003;69156;55.932;-3.238;2023-05-07T00:19:43;24;23;
79689;PMS5003;69156;55.932;-3.238;2023-05-07T00:22:08;23;19;
79689;PMS5003;69156;55.932;-3.238;2023-05-07T00:24:34;26;25;
79689;PMS5003;69156;55.932;-3.238;2023-05-07T00:27:00;24;24;
79689;PMS5003;69156;55.932;-3.238;2023-05-07T00:29:26;25;24;
79689;PMS5003;69156;55.932;-3.238;2023-05-07T00:31:51;29;28;
79689;PMS5003;69156;55.932;-3.238;2023-05-07T00:34:16;25;23;
79689;PMS5003;69156;55.932;-3.238;2023-05-07T00:36:41;27;27;
79689;PMS5003;69156;55.932;-3.238;2023-05-07T00:39:07;27;24;
79689;PMS5003;69156;55.932;-3.238;2023-05-07T00:41:32;26;25;
79689;PMS5003;69156;55.932;-3.238;2023-05-07T00:43:58;23;23;
79689;PMS5003;69156;55.932;-3.238;2023-05-07T00:46:23;25;21;
79689;PMS5003;69156;55.932;-3.238;2023-05-07T00:48:49;23;22;
79689;PMS5003;69156;55.932;-3.238;2023-05-07T00:51:16;23;21;
79689;PMS5003;69156;55.932;-3.238;2023-05-07T00:53:41;23;22;
79689;PMS5003;69156;55.932;-3.238;2023-05-07T00:56:06;22;20;
79689;PMS5003;69156;55.932;-3.238;2023-05-07T00:58:31;20;17;
79689;PMS5003;69156;55.932;-3.238;2023-05-07T01:00:57;19;17;
79689;PMS5003;69156;55.932;-3.238;2023-05-07T01:03:22;15;15;
79689;PMS5003;69156;55.932;-3.238;2023-05-07T01:05:48;22;21;
79689;PMS5003;69156;55.932;-3.238;2023-05-07T01:08:13;23;23;
79689;PMS5003;69156;55.932;-3.238;2023-05-07T01:10:38;23;22;
79689;PMS5003;69156;55.932;-3.238;2023-05-07T01:13:03;24;22;
79689;PMS5003;69156;55.932;-3.238;2023-05-07T01:15:29;20;20;
79689;PMS5003;69156;55.932;-3.238;2023-05-07T01:17:54;22;22;
79689;PMS5003;69156;55.932;-3.238;2023-05-07T01:20:19;18;18;
79689;PMS5003;69156;55.932;-3.238;2023-05-07T01:22:45;19;18;
79689;PMS5003;69156;55.932;-3.238;2023-05-07T01:25:11;21;21;
79689;PMS5003;69156;55.932;-3.238;2023-05-07T01:27:37;15;15;
79689;PMS5003;69156;55.932;-3.238;2023-05-07T01:30:03;14;14;
79689;PMS5003;69156;55.932;-3.238;2023-05-07T01:32:29;16;16;
79689;PMS5003;69156;55.932;-3.238;2023-05-07T01:34:53;20;17;
79689;PMS5003;69156;55.932;-3.238;2023-05-07T01:37:18;18;17;
79689;PMS5003;69156;55.932;-3.238;2023-05-07T01:39:44;14;14;
79689;PMS5003;69156;55.932;-3.238;2023-05-07T01:42:10;22;19;
79689;PMS5003;69156;55.932;-3.238;2023-05-07T01:44:35;13;13;
79689;PMS5003;69156;55.932;-3.238;2023-05-07T01:47:01;14;13;
79689;PMS5003;69156;55.932;-3.238;2023-05-07T01:49:26;16;15;
79689;PMS5003;69156;55.932;-3.238;2023-05-07T01:51:51;13;13;
79689;PMS5003;69156;55.932;-3.238;2023-05-07T01:54:17;14;14;
79689;PMS5003;69156;55.932;-3.238;2023-05-07T01:56:43;19;19;
79689;PMS5003;69156;55.932;-3.238;2023-05-07T01:59:09;17;17;
79689;PMS5003;69156;55.932;-3.238;2023-05-07T02:01:35;17;17;
79689;PMS5003;69156;55.932;-3.238;2023-05-07T02:04:00;16;16;
79689;PMS5003;69156;55.932;-3.238;2023-05-07T02:06:26;17;17;
79689;PMS5003;69156;55.932;-3.238;2023-05-07T02:08:51;21;21;
79689;PMS5003;69156;55.932;-3.238;2023-05-07T02:11:16;15;15;
79689;PMS5003;69156;55.932;-3.238;2023-05-07T02:13:42;21;20;
79689;PMS5003;69156;55.932;-3.238;2023-05-07T02:16:07;18;16;
79689;PMS5003;69156;55.932;-3.238;2023-05-07T02:18:33;17;16;
79689;PMS5003;69156;55.932;-3.238;2023-05-07T02:20:58;20;20;
79689;PMS5003;69156;55.932;-3.238;2023-05-07T02:23:23;20;19;
79689;PMS5003;69156;55.932;-3.238;2023-05-07T02:25:48;15;15;
79689;PMS5003;69156;55.932;-3.238;2023-05-07T02:28:13;14;14;
79689;PMS5003;69156;55.932;-3.238;2023-05-07T02:30:39;18;17;
79689;PMS5003;69156;55.932;-3.238;2023-05-07T02:33:05;12;10;
79689;PMS5003;69156;55.932;-3.238;2023-05-07T02:35:31;12;12;
79689;PMS5003;69156;55.932;-3.238;2023-05-07T02:37:57;14;11;
79689;PMS5003;69156;55.932;-3.238;2023-05-07T02:40:22;17;15;
79689;PMS5003;69156;55.932;-3.238;2023-05-07T02:42:47;15;14;
79689;PMS5003;69156;55.932;-3.238;2023-05-07T02:45:13;15;14;
79689;PMS5003;69156;55.932;-3.238;2023-05-07T02:47:39;12;12;
79689;PMS5003;69156;55.932;-3.238;2023-05-07T02:50:05;11;11;
79689;PMS5003;69156;55.932;-3.238;2023-05-07T02:52:29;12;12;
79689;PMS5003;69156;55.932;-3.238;2023-05-07T02:54:55;15;15;
79689;PMS5003;69156;55.932;-3.238;2023-05-07T02:57:21;13;13;
79689;PMS5003;69156;55.932;-3.238;2023-05-07T02:59:46;15;15;
79689;PMS5003;69156;55.932;-3.238;2023-05-07T03:02:12;16;16;
79689;PMS5003;69156;55.932;-3.238;2023-05-07T03:04:38;14;14;
79689;PMS5003;69156;55.932;-3.238;2023-05-07T03:07:02;9;9;
79689;PMS5003;69156;55.932;-3.238;2023-05-07T03:09:28;16;14;
79689;PMS5003;69156;55.932;-3.238;2023-05-07T03:11:53;16;15;
79689;PMS5003;69156;55.932;-3.238;2023-05-07T03:14:19;15;14;
79689;PMS5003;69156;55.932;-3.238;2023-05-07T03:16:44;16;16;
79689;PMS5003;69156;55.932;-3.238;2023-05-07T03:19:09;15;15;
79689;PMS5003;69156;55.932;-3.238;2023-05-07T03:21:34;18;17;
79689;PMS5003;69156;55.932;-3.238;2023-05-07T03:24:00;14;14;
79689;PMS5003;69156;55.932;-3.238;2023-05-07T03:26:25;18;17;
79689;PMS5003;69156;55.932;-3.238;2023-05-07T03:28:50;18;18;
79689;PMS5003;69156;55.932;-3.238;2023-05-07T03:31:16;17;17;
79689;PMS5003;69156;55.932;-3.238;2023-05-07T03:33:49;18;18;
79689;PMS5003;69156;55.932;-3.238;2023-05-07T03:36:07;20;19;
79689;PMS5003;69156;55.932;-3.238;2023-05-07T03:38:33;21;18;
79689;PMS5003;69156;55.932;-3.238;2023-05-07T03:40:58;20;19;
79689;PMS5003;69156;55.932;-3.238;2023-05-07T03:43:24;13;13;
79689;PMS5003;69156;55.932;-3.238;2023-05-07T03:45:49;14;13;
79689;PMS5003;69156;55.932;-3.238;2023-05-07T03:48:15;16;15;
79689;PMS5003;69156;55.932;-3.238;2023-05-07T03:50:40;16;16;
79689;PMS5003;69156;55.932;-3.238;2023-05-07T03:53:06;16;16;
79689;PMS5003;69156;55.932;-3.238;2023-05-07T03:55:31;19;18;
79689;PMS5003;69156;55.932;-3.238;2023-05-07T03:57:56;15;14;
79689;PMS5003;69156;55.932;-3.238;2023-05-07T04:00:21;20;18;
79689;PMS5003;69156;55.932;-3.238;2023-05-07T04:02:47;16;16;
79689;PMS5003;69156;55.932;-3.238;2023-05-07T04:05:13;15;15;
79689;PMS5003;69156;55.932;-3.238;2023-05-07T04:07:39;14;14;
79689;PMS5003;69156;55.932;-3.238;2023-05-07T04:10:05;15;12;
79689;PMS5003;69156;55.932;-3.238;2023-05-07T04:12:30;16;16;
79689;PMS5003;69156;55.932;-3.238;2023-05-07T04:14:56;15;15;
79689;PMS5003;69156;55.932;-3.238;2023-05-07T04:17:21;18;15;
79689;PMS5003;69156;55.932;-3.238;2023-05-07T04:19:47;16;15;
79689;PMS5003;69156;55.932;-3.238;2023-05-07T04:22:12;16;16;
79689;PMS5003;69156;55.932;-3.238;2023-05-07T04:24:37;20;18;
79689;PMS5003;69156;55.932;-3.238;2023-05-07T04:27:02;21;18;
79689;PMS5003;69156;55.932;-3.238;2023-05-07T04:29:28;17;16;
79689;PMS5003;69156;55.932;-3.238;2023-05-07T04:31:54;14;14;
79689;PMS5003;69156;55.932;-3.238;2023-05-07T04:34:19;19;18;
79689;PMS5003;69156;55.932;-3.238;2023-05-07T04:36:45;23;20;
79689;PMS5003;69156;55.932;-3.238;2023-05-07T04:39:11;25;21;
79689;PMS5003;69156;55.932;-3.238;2023-05-07T04:41:36;24;22;
79689;PMS5003;69156;55.932;-3.238;2023-05-07T04:44:02;20;18;
79689;PMS5003;69156;55.932;-3.238;2023-05-07T04:46:27;18;17;
79689;PMS5003;69156;55.932;-3.238;2023-05-07T04:48:54;22;22;
79689;PMS5003;69156;55.932;-3.238;2023-05-07T04:51:19;21;21;
79689;PMS5003;69156;55.932;-3.238;2023-05-07T04:53:45;20;20;
79689;PMS5003;69156;55.932;-3.238;2023-05-07T04:56:10;24;21;
79689;PMS5003;69156;55.932;-3.238;2023-05-07T04:58:36;18;18;
79689;PMS5003;69156;55.932;-3.238;2023-05-07T05:01:01;17;16;
79689;PMS5003;69156;55.932;-3.238;2023-05-07T05:03:27;25;23;
79689;PMS5003;69156;55.932;-3.238;2023-05-07T05:05:52;20;20;
79689;PMS5003;69156;55.932;-3.238;2023-05-07T05:08:18;24;23;
79689;PMS5003;69156;55.932;-3.238;2023-05-07T05:10:43;24;24;
79689;PMS5003;69156;55.932;-3.238;2023-05-07T05:13:09;23;20;
79689;PMS5003;69156;55.932;-3.238;2023-05-07T05:15:34;19;16;
79689;PMS5003;69156;55.932;-3.238;2023-05-07T05:17:59;22;21;
79689;PMS5003;69156;55.932;-3.238;2023-05-07T05:20:24;15;14;
79689;PMS5003;69156;55.932;-3.238;2023-05-07T05:22:50;19;18;
79689;PMS5003;69156;55.932;-3.238;2023-05-07T05:25:16;20;19;
79689;PMS5003;69156;55.932;-3.238;2023-05-07T05:27:42;22;22;
79689;PMS5003;69156;55.932;-3.238;2023-05-07T05:30:07;20;19;
79689;PMS5003;69156;55.932;-3.238;2023-05-07T05:32:33;22;21;
79689;PMS5003;69156;55.932;-3.238;2023-05-07T05:34:59;21;20;
79689;PMS5003;69156;55.932;-3.238;2023-05-07T05:37:24;22;22;
79689;PMS5003;69156;55.932;-3.238;2023-05-07T05:39:49;18;16;
79689;PMS5003;69156;55.932;-3.238;2023-05-07T05:42:15;22;20;
79689;PMS5003;69156;55.932;-3.238;2023-05-07T05:44:41;19;18;
79689;PMS5003;69156;55.932;-3.238;2023-05-07T05:47:06;16;15;
79689;PMS5003;69156;55.932;-3.238;2023-05-07T05:49:31;19;19;
79689;PMS5003;69156;55.932;-3.238;2023-05-07T05:51:56;22;19;
79689;PMS5003;69156;55.932;-3.238;2023-05-07T05:54:22;20;19;
79689;PMS5003;69156;55.932;-3.238;2023-05-07T05:56:48;23;22;
79689;PMS5003;69156;55.932;-3.238;2023-05-07T05:59:13;19;19;
79689;PMS5003;69156;55.932;-3.238;2023-05-07T06:01:38;17;16;
79689;PMS5003;69156;55.932;-3.238;2023-05-07T06:04:04;20;19;
79689;PMS5003;69156;55.932;-3.238;2023-05-07T06:06:29;18;16;
79689;PMS5003;69156;55.932;-3.238;2023-05-07T06:08:55;15;15;
79689;PMS5003;69156;55.932;-3.238;2023-05-07T06:11:20;17;17;
79689;PMS5003;69156;55.932;-3.238;2023-05-07T06:13:46;18;17;
79689;PMS5003;69156;55.932;-3.238;2023-05-07T06:16:10;18;18;
79689;PMS5003;69156;55.932;-3.238;2023-05-07T06:18:36;17;16;
79689;PMS5003;69156;55.932;-3.238;2023-05-07T06:21:02;19;19;
79689;PMS5003;69156;55.932;-3.238;2023-05-07T06:23:27;17;17;
79689;PMS5003;69156;55.932;-3.238;2023-05-07T06:25:52;21;19;
79689;PMS5003;69156;55.932;-3.238;2023-05-07T06:28:17;15;15;
79689;PMS5003;69156;55.932;-3.238;2023-05-07T06:30:43;18;17;
79689;PMS5003;69156;55.932;-3.238;2023-05-07T06:33:08;16;16;
79689;PMS5003;69156;55.932;-3.238;2023-05-07T06:35:33;16;16;
79689;PMS5003;69156;55.932;-3.238;2023-05-07T06:37:59;17;15;
79689;PMS5003;69156;55.932;-3.238;2023-05-07T06:40:24;15;14;
79689;PMS5003;69156;55.932;-3.238;2023-05-07T06:42:49;16;16;
79689;PMS5003;69156;55.932;-3.238;2023-05-07T06:45:15;17;16;
79689;PMS5003;69156;55.932;-3.238;2023-05-07T06:47:40;14;14;
79689;PMS5003;69156;55.932;-3.238;2023-05-07T06:50:06;14;12;
79689;PMS5003;69156;55.932;-3.238;2023-05-07T06:52:31;18;18;
79689;PMS5003;69156;55.932;-3.238;2023-05-07T06:54:57;15;15;
79689;PMS5003;69156;55.932;-3.238;2023-05-07T06:57:22;17;16;
79689;PMS5003;69156;55.932;-3.238;2023-05-07T06:59:47;15;15;
79689;PMS5003;69156;55.932;-3.238;2023-05-07T07:02:13;15;15;
79689;PMS5003;69156;55.932;-3.238;2023-05-07T07:04:38;15;15;
79689;PMS5003;69156;55.932;-3.238;2023-05-07T07:07:04;17;16;
79689;PMS5003;69156;55.932;-3.238;2023-05-07T07:09:28;18;17;
79689;PMS5003;69156;55.932;-3.238;2023-05-07T07:11:55;17;17;
79689;PMS5003;69156;55.932;-3.238;2023-05-07T07:14:20;15;14;
79689;PMS5003;69156;55.932;-3.238;2023-05-07T07:16:46;16;15;
79689;PMS5003;69156;55.932;-3.238;2023-05-07T07:19:11;15;14;
79689;PMS5003;69156;55.932;-3.238;2023-05-07T07:21:37;17;16;
79689;PMS5003;69156;55.932;-3.238;2023-05-07T07:24:03;16;16;
79689;PMS5003;69156;55.932;-3.238;2023-05-07T07:26:28;19;18;
79689;PMS5003;69156;55.932;-3.238;2023-05-07T07:28:53;21;19;
79689;PMS5003;69156;55.932;-3.238;2023-05-07T07:31:18;18;18;
79689;PMS5003;69156;55.932;-3.238;2023-05-07T07:33:44;18;18;
79689;PMS5003;69156;55.932;-3.238;2023-05-07T07:36:09;16;16;
79689;PMS5003;69156;55.932;-3.238;2023-05-07T07:38:35;18;17;
79689;PMS5003;69156;55.932;-3.238;2023-05-07T07:41:00;16;15;
79689;PMS5003;69156;55.932;-3.238;2023-05-07T07:43:26;19;17;
79689;PMS5003;69156;55.932;-3.238;2023-05-07T07:45:51;16;16;
79689;PMS5003;69156;55.932;-3.238;2023-05-07T07:48:16;17;17;
79689;PMS5003;69156;55.932;-3.238;2023-05-07T07:50:41;17;17;
79689;PMS5003;69156;55.932;-3.238;2023-05-07T07:53:07;16;15;
79689;PMS5003;69156;55.932;-3.238;2023-05-07T07:55:32;17;17;
79689;PMS5003;69156;55.932;-3.238;2023-05-07T07:57:58;17;16;
79689;PMS5003;69156;55.932;-3.238;2023-05-07T08:00:23;11;11;
79689;PMS5003;69156;55.932;-3.238;2023-05-07T08:02:48;17;16;
79689;PMS5003;69156;55.932;-3.238;2023-05-07T08:05:14;16;15;
79689;PMS5003;69156;55.932;-3.238;2023-05-07T08:07:39;15;15;
79689;PMS5003;69156;55.932;-3.238;2023-05-07T08:10:05;19;18;
79689;PMS5003;69156;55.932;-3.238;2023-05-07T08:12:30;17;17;
79689;PMS5003;69156;55.932;-3.238;2023-05-07T08:14:56;17;16;
79689;PMS5003;69156;55.932;-3.238;2023-05-07T08:17:21;14;14;
79689;PMS5003;69156;55.932;-3.238;2023-05-07T08:19:46;17;17;
79689;PMS5003;69156;55.932;-3.238;2023-05-07T08:22:12;16;14;
79689;PMS5003;69156;55.932;-3.238;2023-05-07T08:24:37;19;18;
79689;PMS5003;69156;55.932;-3.238;2023-05-07T08:27:02;21;21;
79689;PMS5003;69156;55.932;-3.238;2023-05-07T08:29:28;18;17;
79689;PMS5003;69156;55.932;-3.238;2023-05-07T08:31:53;19;19;
79689;PMS5003;69156;55.932;-3.238;2023-05-07T08:34:19;16;16;
79689;PMS5003;69156;55.932;-3.238;2023-05-07T08:36:44;22;22;
79689;PMS5003;69156;55.932;-3.238;2023-05-07T08:39:10;21;20;
79689;PMS5003;69156;55.932;-3.238;2023-05-07T08:41:35;21;19;
79689;PMS5003;69156;55.932;-3.238;2023-05-07T08:44:01;21;19;
79689;PMS5003;69156;55.932;-3.238;2023-05-07T08:46:26;22;21;
79689;PMS5003;69156;55.932;-3.238;2023-05-07T08:48:52;19;19;
79689;PMS5003;69156;55.932;-3.238;2023-05-07T08:51:18;19;19;
79689;PMS5003;69156;55.932;-3.238;2023-05-07T08:53:42;19;19;
79689;PMS5003;69156;55.932;-3.238;2023-05-07T08:56:08;21;19;
79689;PMS5003;69156;55.932;-3.238;2023-05-07T08:58:33;15;15;
79689;PMS5003;69156;55.932;-3.238;2023-05-07T09:00:58;21;20;
79689;PMS5003;69156;55.932;-3.238;2023-05-07T09:03:24;21;21;
79689;PMS5003;69156;55.932;-3.238;2023-05-07T09:05:50;20;20;
79689;PMS5003;69156;55.932;-3.238;2023-05-07T09:08:16;23;23;
79689;PMS5003;69156;55.932;-3.238;2023-05-07T09:10:41;19;18;
79689;PMS5003;69156;55.932;-3.238;2023-05-07T09:13:06;23;21;
79689;PMS5003;69156;55.932;-3.238;2023-05-07T09:15:32;21;20;
79689;PMS5003;69156;55.932;-3.238;2023-05-07T09:17:59;19;19;
79689;PMS5003;69156;55.932;-3.238;2023-05-07T09:20:22;18;18;
79689;PMS5003;69156;55.932;-3.238;2023-05-07T09:22:48;20;20;
79689;PMS5003;69156;55.932;-3.238;2023-05-07T09:25:13;21;20;
79689;PMS5003;69156;55.932;-3.238;2023-05-07T09:27:38;23;22;
79689;PMS5003;69156;55.932;-3.238;2023-05-07T09:30:04;22;21;
79689;PMS5003;69156;55.932;-3.238;2023-05-07T09:32:30;22;21;
79689;PMS5003;69156;55.932;-3.238;2023-05-07T09:34:55;26;25;
79689;PMS5003;69156;55.932;-3.238;2023-05-07T09:37:20;26;25;
79689;PMS5003;69156;55.932;-3.238;2023-05-07T09:39:47;23;22;
79689;PMS5003;69156;55.932;-3.238;2023-05-07T09:42:12;25;23;
79689;PMS5003;69156;55.932;-3.238;2023-05-07T09:44:37;24;24;
79689;PMS5003;69156;55.932;-3.238;2023-05-07T09:47:04;26;26;
79689;PMS5003;69156;55.932;-3.238;2023-05-07T09:49:29;27;27;
79689;PMS5003;69156;55.932;-3.238;2023-05-07T09:51:54;28;27;
79689;PMS5003;69156;55.932;-3.238;2023-05-07T09:54:19;27;26;
79689;PMS5003;69156;55.932;-3.238;2023-05-07T09:56:45;21;21;
79689;PMS5003;69156;55.932;-3.238;2023-05-07T09:59:10;28;28;
79689;PMS5003;69156;55.932;-3.238;2023-05-07T10:01:36;21;21;
79689;PMS5003;69156;55.932;-3.238;2023-05-07T10:04:01;25;24;
79689;PMS5003;69156;55.932;-3.238;2023-05-07T10:06:27;20;20;
79689;PMS5003;69156;55.932;-3.238;2023-05-07T10:08:53;27;27;
79689;PMS5003;69156;55.932;-3.238;2023-05-07T10:11:19;23;22;
79689;PMS5003;69156;55.932;-3.238;2023-05-07T10:13:44;19;18;
79689;PMS5003;69156;55.932;-3.238;2023-05-07T10:16:09;24;23;
79689;PMS5003;69156;55.932;-3.238;2023-05-07T10:18:35;23;20;
79689;PMS5003;69156;55.932;-3.238;2023-05-07T10:21:02;21;19;
79689;PMS5003;69156;55.932;-3.238;2023-05-07T10:23:26;23;22;
79689;PMS5003;69156;55.932;-3.238;2023-05-07T10:25:51;18;18;
79689;PMS5003;69156;55.932;-3.238;2023-05-07T10:28:17;21;21;
79689;PMS5003;69156;55.932;-3.238;2023-05-07T10:30:46;21;21;
79689;PMS5003;69156;55.932;-3.238;2023-05-07T10:33:09;20;18;
79689;PMS5003;69156;55.932;-3.238;2023-05-07T10:35:36;22;20;
79689;PMS5003;69156;55.932;-3.238;2023-05-07T10:38:00;22;21;
79689;PMS5003;69156;55.932;-3.238;2023-05-07T10:40:27;22;21;
79689;PMS5003;69156;55.932;-3.238;2023-05-07T10:42:53;21;20;
79689;PMS5003;69156;55.932;-3.238;2023-05-07T10:45:18;18;17;
79689;PMS5003;69156;55.932;-3.238;2023-05-07T10:48:16;19;19;
79689;PMS5003;69156;55.932;-3.238;2023-05-07T10:50:24;20;20;
79689;PMS5003;69156;55.932;-3.238;2023-05-07T10:52:33;19;18;
79689;PMS5003;69156;55.932;-3.238;2023-05-07T10:55:32;20;20;
79689;PMS5003;69156;55.932;-3.238;2023-05-07T10:57:33;19;18;
79689;PMS5003;69156;55.932;-3.238;2023-05-07T10:59:55;20;20;
79689;PMS5003;69156;55.932;-3.238;2023-05-07T11:02:20;19;19;
79689;PMS5003;69156;55.932;-3.238;2023-05-07T11:04:46;18;18;
79689;PMS5003;69156;55.932;-3.238;2023-05-07T11:07:20;21;19;
79689;PMS5003;69156;55.932;-3.238;2023-05-07T11:09:54;18;18;
79689;PMS5003;69156;55.932;-3.238;2023-05-07T11:12:02;17;16;
79689;PMS5003;69156;55.932;-3.238;2023-05-07T11:14:43;17;17;
79689;PMS5003;69156;55.932;-3.238;2023-05-07T11:16:54;17;17;
79689;PMS5003;69156;55.932;-3.238;2023-05-07T11:19:18;23;20;
79689;PMS5003;69156;55.932;-3.238;2023-05-07T11:21:44;18;17;
79689;PMS5003;69156;55.932;-3.238;2023-05-07T11:24:10;18;17;
79689;PMS5003;69156;55.932;-3.238;2023-05-07T11:26:43;15;15;
79689;PMS5003;69156;55.932;-3.238;2023-05-07T11:29:00;12;12;
79689;PMS5003;69156;55.932;-3.238;2023-05-07T11:31:27;14;14;
79689;PMS5003;69156;55.932;-3.238;2023-05-07T11:33:53;13;13;
79689;PMS5003;69156;55.932;-3.238;2023-05-07T11:36:18;14;13;
79689;PMS5003;69156;55.932;-3.238;2023-05-07T11:38:44;12;12;
79689;PMS5003;69156;55.932;-3.238;2023-05-07T11:41:09;11;11;
79689;PMS5003;69156;55.932;-3.238;2023-05-07T11:43:34;14;14;
79689;PMS5003;69156;55.932;-3.238;2023-05-07T11:46:08;14;14;
79689;PMS5003;69156;55.932;-3.238;2023-05-07T11:48:26;15;14;
79689;PMS5003;69156;55.932;-3.238;2023-05-07T11:50:52;12;12;
79689;PMS5003;69156;55.932;-3.238;2023-05-07T11:53:17;11;11;
79689;PMS5003;69156;55.932;-3.238;2023-05-07T11:55:43;15;15;
79689;PMS5003;69156;55.932;-3.238;2023-05-07T11:58:10;15;15;
79689;PMS5003;69156;55.932;-3.238;2023-05-07T12:00:34;14;13;
79689;PMS5003;69156;55.932;-3.238;2023-05-07T12:03:02;14;13;
79689;PMS5003;69156;55.932;-3.238;2023-05-07T12:05:26;14;13;
79689;PMS5003;69156;55.932;-3.238;2023-05-07T12:07:55;13;13;
79689;PMS5003;69156;55.932;-3.238;2023-05-07T12:10:17;16;15;
79689;PMS5003;69156;55.932;-3.238;2023-05-07T12:12:45;13;12;
79689;PMS5003;69156;55.932;-3.238;2023-05-07T12:15:08;13;13;
79689;PMS5003;69156;55.932;-3.238;2023-05-07T12:17:33;15;15;
79689;PMS5003;69156;55.932;-3.238;2023-05-07T12:19:58;14;13;
79689;PMS5003;69156;55.932;-3.238;2023-05-07T12:22:24;15;15;
79689;PMS5003;69156;55.932;-3.238;2023-05-07T12:24:49;14;14;
79689;PMS5003;69156;55.932;-3.238;2023-05-07T12:27:14;16;16;
79689;PMS5003;69156;55.932;-3.238;2023-05-07T12:29:39;17;17;
79689;PMS5003;69156;55.932;-3.238;2023-05-07T12:32:05;18;17;
79689;PMS5003;69156;55.932;-3.238;2023-05-07T12:34:31;15;15;
79689;PMS5003;69156;55.932;-3.238;2023-05-07T12:36:56;13;13;
79689;PMS5003;69156;55.932;-3.238;2023-05-07T12:39:21;15;15;
79689;PMS5003;69156;55.932;-3.238;2023-05-07T12:41:54;18;17;
79689;PMS5003;69156;55.932;-3.238;2023-05-07T12:44:12;13;13;
79689;PMS5003;69156;55.932;-3.238;2023-05-07T12:46:38;12;12;
79689;PMS5003;69156;55.932;-3.238;2023-05-07T12:49:03;9;9;
79689;PMS5003;69156;55.932;-3.238;2023-05-07T12:51:28;14;14;
79689;PMS5003;69156;55.932;-3.238;2023-05-07T12:53:55;12;12;
79689;PMS5003;69156;55.932;-3.238;2023-05-07T12:56:19;13;13;
79689;PMS5003;69156;55.932;-3.238;2023-05-07T12:58:45;14;13;
79689;PMS5003;69156;55.932;-3.238;2023-05-07T13:01:11;13;13;
79689;PMS5003;69156;55.932;-3.238;2023-05-07T13:03:37;11;11;
79689;PMS5003;69156;55.932;-3.238;2023-05-07T13:06:03;11;11;
79689;PMS5003;69156;55.932;-3.238;2023-05-07T13:08:28;16;15;
79689;PMS5003;69156;55.932;-3.238;2023-05-07T13:10:52;13;13;
79689;PMS5003;69156;55.932;-3.238;2023-05-07T13:13:18;15;15;
79689;PMS5003;69156;55.932;-3.238;2023-05-07T13:15:43;13;13;
79689;PMS5003;69156;55.932;-3.238;2023-05-07T13:18:08;13;13;
79689;PMS5003;69156;55.932;-3.238;2023-05-07T13:20:33;17;14;
79689;PMS5003;69156;55.932;-3.238;2023-05-07T13:22:59;14;14;
79689;PMS5003;69156;55.932;-3.238;2023-05-07T13:25:24;15;15;
79689;PMS5003;69156;55.932;-3.238;2023-05-07T13:27:49;14;14;
79689;PMS5003;69156;55.932;-3.238;2023-05-07T13:30:15;14;14;
79689;PMS5003;69156;55.932;-3.238;2023-05-07T13:32:40;13;13;
79689;PMS5003;69156;55.932;-3.238;2023-05-07T13:35:06;13;13;
79689;PMS5003;69156;55.932;-3.238;2023-05-07T13:37:31;11;11;
79689;PMS5003;69156;55.932;-3.238;2023-05-07T13:39:57;12;12;
79689;PMS5003;69156;55.932;-3.238;2023-05-07T13:42:23;15;15;
79689;PMS5003;69156;55.932;-3.238;2023-05-07T13:44:48;13;13;
79689;PMS5003;69156;55.932;-3.238;2023-05-07T13:47:14;16;15;
79689;PMS5003;69156;55.932;-3.238;2023-05-07T13:49:39;11;11;
79689;PMS5003;69156;55.932;-3.238;2023-05-07T13:52:05;15;14;
79689;PMS5003;69156;55.932;-3.238;2023-05-07T13:54:30;16;15;
79689;PMS5003;69156;55.932;-3.238;2023-05-07T13:56:56;13;12;
79689;PMS5003;69156;55.932;-3.238;2023-05-07T13:59:22;16;16;
79689;PMS5003;69156;55.932;-3.238;2023-05-07T14:01:47;20;18;
79689;PMS5003;69156;55.932;-3.238;2023-05-07T14:04:13;18;18;
79689;PMS5003;69156;55.932;-3.238;2023-05-07T14:06:38;15;15;
79689;PMS5003;69156;55.932;-3.238;2023-05-07T14:09:03;13;13;
79689;PMS5003;69156;55.932;-3.238;2023-05-07T14:11:29;13;13;
79689;PMS5003;69156;55.932;-3.238;2023-05-07T14:13:54;12;12;
79689;PMS5003;69156;55.932;-3.238;2023-05-07T14:16:20;11;11;
79689;PMS5003;69156;55.932;-3.238;2023-05-07T14:18:45;12;11;
79689;PMS5003;69156;55.932;-3.238;2023-05-07T14:21:11;11;11;
79689;PMS5003;69156;55.932;-3.238;2023-05-07T14:23:36;15;14;
79689;PMS5003;69156;55.932;-3.238;2023-05-07T14:26:02;15;15;
79689;PMS5003;69156;55.932;-3.238;2023-05-07T14:28:27;13;13;
79689;PMS5003;69156;55.932;-3.238;2023-05-07T14:30:53;12;12;
79689;PMS5003;69156;55.932;-3.238;2023-05-07T14:33:18;13;13;
79689;PMS5003;69156;55.932;-3.238;2023-05-07T14:35:43;15;14;
79689;PMS5003;69156;55.932;-3.238;2023-05-07T14:38:09;17;17;
79689;PMS5003;69156;55.932;-3.238;2023-05-07T14:40:34;19;18;
79689;PMS5003;69156;55.932;-3.238;2023-05-07T14:43:00;18;18;
79689;PMS5003;69156;55.932;-3.238;2023-05-07T14:45:26;18;17;
79689;PMS5003;69156;55.932;-3.238;2023-05-07T14:47:52;20;19;
79689;PMS5003;69156;55.932;-3.238;2023-05-07T14:50:17;18;17;
79689;PMS5003;69156;55.932;-3.238;2023-05-07T14:52:43;16;16;
79689;PMS5003;69156;55.932;-3.238;2023-05-07T14:55:08;20;20;
79689;PMS5003;69156;55.932;-3.238;2023-05-07T14:57:34;20;20;
79689;PMS5003;69156;55.932;-3.238;2023-05-07T14:59:59;19;18;
79689;PMS5003;69156;55.932;-3.238;2023-05-07T15:02:24;19;17;
79689;PMS5003;69156;55.932;-3.238;2023-05-07T15:04:49;19;18;
79689;PMS5003;69156;55.932;-3.238;2023-05-07T15:07:15;20;19;
79689;PMS5003;69156;55.932;-3.238;2023-05-07T15:09:41;19;19;
79689;PMS5003;69156;55.932;-3.238;2023-05-07T15:12:06;18;18;
79689;PMS5003;69156;55.932;-3.238;2023-05-07T15:14:33;18;17;
79689;PMS5003;69156;55.932;-3.238;2023-05-07T15:16:57;17;17;
79689;PMS5003;69156;55.932;-3.238;2023-05-07T15:19:23;18;18;
79689;PMS5003;69156;55.932;-3.238;2023-05-07T15:21:48;18;17;
79689;PMS5003;69156;55.932;-3.238;2023-05-07T15:24:14;17;17;
79689;PMS5003;69156;55.932;-3.238;2023-05-07T15:26:41;25;24;
79689;PMS5003;69156;55.932;-3.238;2023-05-07T15:29:05;21;21;
79689;PMS5003;69156;55.932;-3.238;2023-05-07T15:31:32;24;20;
79689;PMS5003;69156;55.932;-3.238;2023-05-07T15:33:57;21;20;
79689;PMS5003;69156;55.932;-3.238;2023-05-07T15:36:23;19;19;
79689;PMS5003;69156;55.932;-3.238;2023-05-07T15:38:48;23;23;
79689;PMS5003;69156;55.932;-3.238;2023-05-07T15:41:14;19;19;
79689;PMS5003;69156;55.932;-3.238;2023-05-07T15:43:43;20;20;
79689;PMS5003;69156;55.932;-3.238;2023-05-07T15:46:06;21;19;
79689;PMS5003;69156;55.932;-3.238;2023-05-07T15:48:31;22;21;